Time,TemperatureF,DewpointF,PressureIn,WindDirection,WindDirectionDegrees,WindSpeedMPH,WindSpeedGustMPH,Humidity,HourlyPrecipIn,Conditions,Clouds,dailyrainin,SoftwareType,DateUTC
2013-08-20 00:02:00,65.1,62.4,30.11,ESE,108,1.0,2.0,91,0.00,,,0.00,Wunderground v.1.15,2013-08-20 04:02:00,
2013-08-20 00:04:00,65.1,62.1,30.11,ESE,120,1.0,2.0,90,0.00,,,0.00,Wunderground v.1.15,2013-08-20 04:04:00,
2013-08-20 00:06:00,65.0,62.3,30.11,ESE,120,1.0,2.0,91,0.00,,,0.00,Wunderground v.1.15,2013-08-20 04:06:00,
2013-08-20 00:10:00,64.8,62.1,30.11,ESE,120,1.0,1.0,91,0.00,,,0.00,Wunderground v.1.15,2013-08-20 04:10:00,
2013-08-20 00:12:00,64.8,62.1,30.11,ESE,119,1.0,1.0,91,0.00,,,0.00,Wunderground v.1.15,2013-08-20 04:12:00,
2013-08-20 00:18:00,64.5,62.1,30.11,ESE,116,1.0,1.0,92,0.00,,,0.00,Wunderground v.1.15,2013-08-20 04:18:00,
2013-08-20 00:24:00,64.5,62.1,30.11,ESE,116,1.0,2.0,92,0.00,,,0.00,Wunderground v.1.15,2013-08-20 04:24:00,
2013-08-20 00:30:00,64.6,62.2,30.11,ESE,108,1.0,1.0,92,0.00,,,0.00,Wunderground v.1.15,2013-08-20 04:30:00,
2013-08-20 00:36:00,64.6,62.2,30.11,ESE,108,1.0,1.0,92,0.00,,,0.00,Wunderground v.1.15,2013-08-20 04:36:00,
2013-08-20 00:42:00,64.6,62.2,30.11,ESE,105,1.0,1.0,92,0.00,,,0.00,Wunderground v.1.15,2013-08-20 04:42:00,
2013-08-20 00:48:00,64.5,62.1,30.11,ESE,106,1.0,1.0,92,0.00,,,0.00,Wunderground v.1.15,2013-08-20 04:48:00,
2013-08-20 00:54:00,64.5,62.1,30.11,ESE,105,1.0,1.0,92,0.00,,,0.00,Wunderground v.1.15,2013-08-20 04:54:00,
2013-08-20 01:00:00,64.5,62.4,30.11,ESE,103,1.0,1.0,93,0.00,,,0.00,Wunderground v.1.15,2013-08-20 05:00:00,
2013-08-20 01:06:00,64.4,62.3,30.11,ESE,103,1.0,2.0,93,0.00,,,0.00,Wunderground v.1.15,2013-08-20 05:06:00,
2013-08-20 01:12:00,64.2,62.1,30.11,East,101,1.0,2.0,93,0.00,,,0.00,Wunderground v.1.15,2013-08-20 05:12:00,
2013-08-20 01:18:00,64.2,62.1,30.11,ESE,103,1.0,2.0,93,0.00,,,0.00,Wunderground v.1.15,2013-08-20 05:18:00,
2013-08-20 01:24:00,64.2,62.1,30.11,ESE,107,1.0,1.0,93,0.00,,,0.00,Wunderground v.1.15,2013-08-20 05:24:00,
2013-08-20 01:30:00,64.1,62.0,30.11,East,99,1.0,2.0,93,0.00,,,0.00,Wunderground v.1.15,2013-08-20 05:30:00,
2013-08-20 01:36:00,64.0,62.2,30.11,ESE,106,1.0,2.0,94,0.00,,,0.00,Wunderground v.1.15,2013-08-20 05:36:00,
2013-08-20 01:42:00,64.0,62.2,30.11,ESE,104,1.0,1.0,94,0.00,,,0.00,Wunderground v.1.15,2013-08-20 05:42:00,
2013-08-20 01:48:00,63.8,62.0,30.10,East,97,1.0,1.0,94,0.00,,,0.00,Wunderground v.1.15,2013-08-20 05:48:00,
2013-08-20 01:54:00,63.7,61.9,30.10,East,96,1.0,1.0,94,0.00,,,0.00,Wunderground v.1.15,2013-08-20 05:54:00,
2013-08-20 02:00:00,63.6,61.8,30.10,East,95,1.0,1.0,94,0.00,,,0.00,Wunderground v.1.15,2013-08-20 06:00:00,
2013-08-20 02:06:00,63.4,61.6,30.10,East,101,1.0,2.0,94,0.00,,,0.00,Wunderground v.1.15,2013-08-20 06:06:00,
2013-08-20 02:12:00,63.3,61.5,30.10,East,92,1.0,1.0,94,0.00,,,0.00,Wunderground v.1.15,2013-08-20 06:12:00,
2013-08-20 02:18:00,63.4,61.9,30.10,East,94,1.0,1.0,95,0.00,,,0.00,Wunderground v.1.15,2013-08-20 06:18:00,
2013-08-20 02:24:00,63.3,61.8,30.10,East,94,0.0,1.0,95,0.00,,,0.00,Wunderground v.1.15,2013-08-20 06:24:00,
2013-08-20 02:30:00,63.4,61.9,30.10,East,94,1.0,1.0,95,0.00,,,0.00,Wunderground v.1.15,2013-08-20 06:30:00,
2013-08-20 02:36:00,63.6,62.1,30.10,East,98,1.0,1.0,95,0.00,,,0.00,Wunderground v.1.15,2013-08-20 06:36:00,
2013-08-20 02:42:00,63.7,61.9,30.11,East,98,0.0,1.0,94,0.00,,,0.00,Wunderground v.1.15,2013-08-20 06:42:00,
2013-08-20 02:48:00,63.5,61.7,30.11,East,98,0.0,1.0,94,0.00,,,0.00,Wunderground v.1.15,2013-08-20 06:48:00,
2013-08-20 02:54:00,63.4,61.6,30.11,East,98,1.0,1.0,94,0.00,,,0.00,Wunderground v.1.15,2013-08-20 06:54:00,
2013-08-20 03:00:00,63.5,62.0,30.11,East,98,1.0,1.0,95,0.00,,,0.00,Wunderground v.1.15,2013-08-20 07:00:00,
2013-08-20 03:06:00,63.6,62.1,30.11,East,98,0.0,2.0,95,0.00,,,0.00,Wunderground v.1.15,2013-08-20 07:06:00,
2013-08-20 03:12:00,63.7,61.9,30.11,East,98,0.0,1.0,94,0.00,,,0.00,Wunderground v.1.15,2013-08-20 07:12:00,
2013-08-20 03:18:00,63.8,62.0,30.10,East,98,0.0,1.0,94,0.00,,,0.00,Wunderground v.1.15,2013-08-20 07:18:00,
2013-08-20 03:24:00,63.6,61.8,30.11,East,98,1.0,1.0,94,0.00,,,0.00,Wunderground v.1.15,2013-08-20 07:24:00,
2013-08-20 03:32:00,63.3,61.5,30.11,ESE,102,0.0,1.0,94,0.00,,,0.00,Wunderground v.1.15,2013-08-20 07:32:00,
2013-08-20 03:38:00,63.1,61.3,30.11,East,101,1.0,1.0,94,0.00,,,0.00,Wunderground v.1.15,2013-08-20 07:38:00,
2013-08-20 03:44:00,63.0,61.5,30.11,ESE,102,1.0,1.0,95,0.00,,,0.00,Wunderground v.1.15,2013-08-20 07:44:00,
2013-08-20 03:50:00,62.8,61.3,30.11,East,101,0.0,1.0,95,0.00,,,0.00,Wunderground v.1.15,2013-08-20 07:50:00,
2013-08-20 03:56:00,62.8,61.3,30.11,ESE,102,0.0,1.0,95,0.00,,,0.00,Wunderground v.1.15,2013-08-20 07:56:00,
2013-08-20 04:02:00,62.6,61.1,30.11,ESE,102,0.0,1.0,95,0.00,,,0.00,Wunderground v.1.15,2013-08-20 08:02:00,
2013-08-20 04:08:00,62.5,61.0,30.11,ESE,102,0.0,1.0,95,0.00,,,0.00,Wunderground v.1.15,2013-08-20 08:08:00,
2013-08-20 04:14:00,62.5,61.3,30.11,ESE,102,1.0,1.0,96,0.00,,,0.00,Wunderground v.1.15,2013-08-20 08:14:00,
2013-08-20 04:20:00,62.5,61.3,30.11,East,101,1.0,1.0,96,0.00,,,0.00,Wunderground v.1.15,2013-08-20 08:20:00,
2013-08-20 04:26:00,62.4,61.2,30.11,ESE,102,1.0,1.0,96,0.00,,,0.00,Wunderground v.1.15,2013-08-20 08:26:00,
2013-08-20 04:32:00,62.3,61.1,30.11,East,101,0.0,1.0,96,0.00,,,0.00,Wunderground v.1.15,2013-08-20 08:32:00,
2013-08-20 04:38:00,62.1,60.9,30.11,ESE,102,0.0,1.0,96,0.00,,,0.00,Wunderground v.1.15,2013-08-20 08:38:00,
2013-08-20 04:44:00,62.0,60.8,30.11,ESE,102,0.0,1.0,96,0.00,,,0.00,Wunderground v.1.15,2013-08-20 08:44:00,
2013-08-20 04:50:00,61.9,60.7,30.11,East,101,0.0,0.0,96,0.00,,,0.00,Wunderground v.1.15,2013-08-20 08:50:00,
2013-08-20 04:56:00,61.7,60.5,30.11,ESE,102,0.0,0.0,96,0.00,,,0.00,Wunderground v.1.15,2013-08-20 08:56:00,
2013-08-20 05:02:00,61.7,60.5,30.11,East,101,0.0,1.0,96,0.00,,,0.00,Wunderground v.1.15,2013-08-20 09:02:00,
2013-08-20 05:08:00,61.5,60.3,30.12,East,101,0.0,1.0,96,0.00,,,0.00,Wunderground v.1.15,2013-08-20 09:08:00,
2013-08-20 05:14:00,61.4,60.5,30.12,East,101,0.0,0.0,97,0.00,,,0.00,Wunderground v.1.15,2013-08-20 09:14:00,
2013-08-20 05:20:00,61.5,60.6,30.12,ESE,102,0.0,0.0,97,0.00,,,0.00,Wunderground v.1.15,2013-08-20 09:20:00,
2013-08-20 05:26:00,61.5,60.6,30.12,East,101,1.0,1.0,97,0.00,,,0.00,Wunderground v.1.15,2013-08-20 09:26:00,
2013-08-20 05:32:00,61.4,60.5,30.12,East,101,0.0,1.0,97,0.00,,,0.00,Wunderground v.1.15,2013-08-20 09:32:00,
2013-08-20 05:38:00,61.4,60.5,30.12,ESE,102,1.0,1.0,97,0.00,,,0.00,Wunderground v.1.15,2013-08-20 09:38:00,
2013-08-20 05:44:00,61.5,60.6,30.13,East,101,0.0,1.0,97,0.00,,,0.00,Wunderground v.1.15,2013-08-20 09:44:00,
2013-08-20 05:50:00,61.4,60.5,30.13,East,101,0.0,0.0,97,0.00,,,0.00,Wunderground v.1.15,2013-08-20 09:50:00,
2013-08-20 05:56:00,61.2,60.3,30.13,East,101,0.0,0.0,97,0.00,,,0.00,Wunderground v.1.15,2013-08-20 09:56:00,
2013-08-20 06:02:00,61.2,60.3,30.13,East,101,0.0,1.0,97,0.00,,,0.00,Wunderground v.1.15,2013-08-20 10:02:00,
2013-08-20 06:08:00,61.2,60.3,30.13,East,101,0.0,1.0,97,0.00,,,0.00,Wunderground v.1.15,2013-08-20 10:08:00,
2013-08-20 06:14:00,61.2,60.3,30.14,East,101,0.0,1.0,97,0.00,,,0.00,Wunderground v.1.15,2013-08-20 10:14:00,
2013-08-20 06:20:00,61.2,60.3,30.14,East,101,1.0,1.0,97,0.00,,,0.00,Wunderground v.1.15,2013-08-20 10:20:00,
2013-08-20 06:26:00,61.1,60.2,30.14,East,101,0.0,1.0,97,0.00,,,0.00,Wunderground v.1.15,2013-08-20 10:26:00,
2013-08-20 06:32:00,61.1,60.2,30.14,East,101,0.0,0.0,97,0.00,,,0.00,Wunderground v.1.15,2013-08-20 10:32:00,
2013-08-20 06:38:00,61.1,60.2,30.14,East,101,0.0,1.0,97,0.00,,,0.00,Wunderground v.1.15,2013-08-20 10:38:00,
2013-08-20 06:44:00,61.2,60.3,30.14,East,101,0.0,1.0,97,0.00,,,0.00,Wunderground v.1.15,2013-08-20 10:44:00,
2013-08-20 06:50:00,61.3,60.7,30.15,East,101,0.0,0.0,98,0.00,,,0.00,Wunderground v.1.15,2013-08-20 10:50:00,
2013-08-20 06:56:00,61.4,60.8,30.15,East,101,0.0,1.0,98,0.00,,,0.00,Wunderground v.1.15,2013-08-20 10:56:00,
2013-08-20 07:02:00,61.6,61.0,30.15,East,101,0.0,1.0,98,0.00,,,0.00,Wunderground v.1.15,2013-08-20 11:02:00,
2013-08-20 07:08:00,61.7,61.1,30.15,ESE,102,0.0,1.0,98,0.00,,,0.00,Wunderground v.1.15,2013-08-20 11:08:00,
2013-08-20 07:14:00,61.8,61.2,30.15,East,101,0.0,0.0,98,0.00,,,0.00,Wunderground v.1.15,2013-08-20 11:14:00,
2013-08-20 07:20:00,62.0,61.4,30.16,East,101,0.0,0.0,98,0.00,,,0.00,Wunderground v.1.15,2013-08-20 11:20:00,
2013-08-20 07:26:00,62.2,61.6,30.16,ESE,102,0.0,0.0,98,0.00,,,0.00,Wunderground v.1.15,2013-08-20 11:26:00,
2013-08-20 07:32:00,62.4,61.8,30.16,ESE,102,0.0,0.0,98,0.00,,,0.00,Wunderground v.1.15,2013-08-20 11:32:00,
2013-08-20 07:38:00,62.7,62.1,30.17,ESE,102,0.0,0.0,98,0.00,,,0.00,Wunderground v.1.15,2013-08-20 11:38:00,
2013-08-20 07:44:00,63.0,62.4,30.17,ESE,102,0.0,0.0,98,0.00,,,0.00,Wunderground v.1.15,2013-08-20 11:44:00,
2013-08-20 07:50:00,63.7,63.1,30.17,ESE,102,0.0,0.0,98,0.00,,,0.00,Wunderground v.1.15,2013-08-20 11:50:00,
2013-08-20 07:56:00,64.6,64.0,30.17,East,101,0.0,0.0,98,0.00,,,0.00,Wunderground v.1.15,2013-08-20 11:56:00,
2013-08-20 08:02:00,65.2,64.3,30.17,ESE,102,0.0,1.0,97,0.00,,,0.00,Wunderground v.1.15,2013-08-20 12:02:00,
2013-08-20 08:08:00,65.3,63.8,30.17,NNW,340,0.0,1.0,95,0.00,,,0.00,Wunderground v.1.15,2013-08-20 12:08:00,
2013-08-20 08:14:00,65.6,64.1,30.17,NNW,340,0.0,0.0,95,0.00,,,0.00,Wunderground v.1.15,2013-08-20 12:14:00,
2013-08-20 08:20:00,66.0,64.5,30.17,NNW,340,0.0,0.0,95,0.00,,,0.00,Wunderground v.1.15,2013-08-20 12:20:00,
2013-08-20 08:26:00,66.4,64.6,30.17,NNW,343,0.0,0.0,94,0.00,,,0.00,Wunderground v.1.15,2013-08-20 12:26:00,
2013-08-20 08:32:00,66.9,64.5,30.17,NNW,343,0.0,0.0,92,0.00,,,0.00,Wunderground v.1.15,2013-08-20 12:32:00,
2013-08-20 08:38:00,67.7,64.7,30.17,NNW,345,0.0,0.0,90,0.00,,,0.00,Wunderground v.1.15,2013-08-20 12:38:00,
2013-08-20 08:44:00,68.6,64.6,30.17,NNW,345,0.0,1.0,87,0.00,,,0.00,Wunderground v.1.15,2013-08-20 12:44:00,
2013-08-20 08:50:00,68.6,64.2,30.17,North,359,0.0,0.0,86,0.00,,,0.00,Wunderground v.1.15,2013-08-20 12:50:00,
2013-08-20 08:56:00,68.8,64.4,30.17,NNE,17,0.0,1.0,86,0.00,,,0.00,Wunderground v.1.15,2013-08-20 12:56:00,
2013-08-20 09:02:00,69.2,64.5,30.17,NNE,19,1.0,1.0,85,0.00,,,0.00,Wunderground v.1.15,2013-08-20 13:02:00,
2013-08-20 09:08:00,69.6,64.9,30.18,NNE,21,0.0,1.0,85,0.00,,,0.00,Wunderground v.1.15,2013-08-20 13:08:00,
2013-08-20 09:14:00,70.1,65.0,30.18,NNE,23,0.0,1.0,84,0.00,,,0.00,Wunderground v.1.15,2013-08-20 13:14:00,
2013-08-20 09:20:00,70.0,64.6,30.18,NNE,24,0.0,2.0,83,0.00,,,0.00,Wunderground v.1.15,2013-08-20 13:20:00,
2013-08-20 09:26:00,70.0,65.3,30.18,NNE,30,1.0,2.0,85,0.00,,,0.00,Wunderground v.1.15,2013-08-20 13:26:00,
2013-08-20 09:32:00,70.1,65.0,30.18,NNE,27,1.0,2.0,84,0.00,,,0.00,Wunderground v.1.15,2013-08-20 13:32:00,
2013-08-20 09:38:00,70.1,65.4,30.18,NE,35,1.0,2.0,85,0.00,,,0.00,Wunderground v.1.15,2013-08-20 13:38:00,
2013-08-20 09:44:00,70.9,65.8,30.18,NNE,25,0.0,1.0,84,0.00,,,0.00,Wunderground v.1.15,2013-08-20 13:44:00,
2013-08-20 09:50:00,71.3,65.9,30.18,North,11,0.0,0.0,83,0.00,,,0.00,Wunderground v.1.15,2013-08-20 13:50:00,
2013-08-20 09:56:00,71.8,66.0,30.18,NNE,25,0.0,2.0,82,0.00,,,0.00,Wunderground v.1.15,2013-08-20 13:56:00,
2013-08-20 10:02:00,71.7,65.6,30.18,NNE,30,1.0,2.0,81,0.00,,,0.00,Wunderground v.1.15,2013-08-20 14:02:00,
2013-08-20 10:08:00,72.0,65.8,30.18,NNE,31,0.0,2.0,81,0.00,,,0.00,Wunderground v.1.15,2013-08-20 14:08:00,
2013-08-20 10:14:00,72.8,65.9,30.18,NE,45,0.0,1.0,79,0.00,,,0.00,Wunderground v.1.15,2013-08-20 14:14:00,
2013-08-20 10:20:00,72.9,66.4,30.18,NE,46,1.0,1.0,80,0.00,,,0.00,Wunderground v.1.15,2013-08-20 14:20:00,
2013-08-20 10:26:00,73.5,66.6,30.18,NE,56,0.0,1.0,79,0.00,,,0.00,Wunderground v.1.15,2013-08-20 14:26:00,
2013-08-20 10:32:00,74.1,66.8,30.18,North,2,0.0,0.0,78,0.00,,,0.00,Wunderground v.1.15,2013-08-20 14:32:00,
2013-08-20 10:38:00,74.3,67.0,30.18,NNW,348,1.0,1.0,78,0.00,,,0.00,Wunderground v.1.15,2013-08-20 14:38:00,
2013-08-20 10:44:00,74.7,66.2,30.18,ENE,77,1.0,1.0,75,0.00,,,0.00,Wunderground v.1.15,2013-08-20 14:44:00,
2013-08-20 10:50:00,75.0,66.1,30.18,ESE,110,1.0,1.0,74,0.00,,,0.00,Wunderground v.1.15,2013-08-20 14:50:00,
2013-08-20 10:56:00,75.9,66.6,30.19,ESE,110,0.0,1.0,73,0.00,,,0.00,Wunderground v.1.15,2013-08-20 14:56:00,
2013-08-20 11:02:00,76.2,65.7,30.19,SW,231,0.0,2.0,70,0.00,,,0.00,Wunderground v.1.15,2013-08-20 15:02:00,
2013-08-20 11:08:00,77.1,66.1,30.19,NE,46,1.0,3.0,69,0.00,,,0.00,Wunderground v.1.15,2013-08-20 15:08:00,
2013-08-20 11:14:00,76.7,64.9,30.19,NE,45,1.0,1.0,67,0.00,,,0.00,Wunderground v.1.15,2013-08-20 15:14:00,
2013-08-20 11:20:00,77.5,67.8,30.18,East,83,1.0,1.0,72,0.00,,,0.00,Wunderground v.1.15,2013-08-20 15:20:00,
2013-08-20 11:26:00,77.7,66.3,30.18,NW,326,1.0,2.0,68,0.00,,,0.00,Wunderground v.1.15,2013-08-20 15:26:00,
2013-08-20 11:32:00,78.4,66.1,30.18,ENE,78,1.0,1.0,66,0.00,,,0.00,Wunderground v.1.15,2013-08-20 15:32:00,
2013-08-20 11:38:00,79.0,68.4,30.18,East,79,0.0,2.0,70,0.00,,,0.00,Wunderground v.1.15,2013-08-20 15:38:00,
2013-08-20 11:44:00,79.7,67.8,30.18,East,82,0.0,0.0,67,0.00,,,0.00,Wunderground v.1.15,2013-08-20 15:44:00,
2013-08-20 11:50:00,79.5,65.3,30.18,NW,319,0.0,1.0,62,0.00,,,0.00,Wunderground v.1.15,2013-08-20 15:50:00,
2013-08-20 11:56:00,79.7,65.1,30.18,NW,319,1.0,2.0,61,0.00,,,0.00,Wunderground v.1.15,2013-08-20 15:56:00,
2013-08-20 12:02:00,79.6,65.4,30.18,SSW,209,1.0,2.0,62,0.00,,,0.00,Wunderground v.1.15,2013-08-20 16:02:00,
2013-08-20 12:08:00,79.0,63.4,30.18,WSW,248,1.0,4.0,59,0.00,,,0.00,Wunderground v.1.15,2013-08-20 16:08:00,
2013-08-20 12:14:00,80.1,65.0,30.17,NNE,20,0.0,1.0,60,0.00,,,0.00,Wunderground v.1.15,2013-08-20 16:14:00,
2013-08-20 12:20:00,80.1,65.4,30.17,WSW,257,0.0,1.0,61,0.00,,,0.00,Wunderground v.1.15,2013-08-20 16:20:00,
2013-08-20 12:26:00,80.3,62.7,30.17,NNE,13,0.0,1.0,55,0.00,,,0.00,Wunderground v.1.15,2013-08-20 16:26:00,
2013-08-20 12:32:00,80.7,63.5,30.17,NE,37,0.0,2.0,56,0.00,,,0.00,Wunderground v.1.15,2013-08-20 16:32:00,
2013-08-20 12:38:00,80.2,63.6,30.17,WSW,254,1.0,3.0,57,0.00,,,0.00,Wunderground v.1.15,2013-08-20 16:38:00,
2013-08-20 12:44:00,79.9,61.8,30.17,East,84,1.0,1.0,54,0.00,,,0.00,Wunderground v.1.15,2013-08-20 16:44:00,
2013-08-20 12:50:00,80.5,61.8,30.17,SW,231,1.0,1.0,53,0.00,,,0.00,Wunderground v.1.15,2013-08-20 16:50:00,
2013-08-20 12:56:00,80.6,61.9,30.17,North,1,1.0,2.0,53,0.00,,,0.00,Wunderground v.1.15,2013-08-20 16:56:00,
2013-08-20 13:02:00,81.0,61.7,30.17,North,351,1.0,3.0,52,0.00,,,0.00,Wunderground v.1.15,2013-08-20 17:02:00,
2013-08-20 13:08:00,81.4,62.6,30.17,NNE,25,0.0,3.0,53,0.00,,,0.00,Wunderground v.1.15,2013-08-20 17:08:00,
2013-08-20 13:14:00,81.3,64.1,30.17,NW,313,1.0,1.0,56,0.00,,,0.00,Wunderground v.1.15,2013-08-20 17:14:00,
2013-08-20 13:20:00,81.4,62.6,30.17,NNE,23,1.0,2.0,53,0.00,,,0.00,Wunderground v.1.15,2013-08-20 17:20:00,
2013-08-20 13:26:00,81.0,63.3,30.17,West,263,1.0,2.0,55,0.00,,,0.00,Wunderground v.1.15,2013-08-20 17:26:00,
2013-08-20 13:32:00,81.0,61.2,30.17,NE,41,1.0,1.0,51,0.00,,,0.00,Wunderground v.1.15,2013-08-20 17:32:00,
2013-08-20 13:38:00,81.3,60.9,30.17,NNW,332,1.0,2.0,50,0.00,,,0.00,Wunderground v.1.15,2013-08-20 17:38:00,
2013-08-20 13:44:00,81.2,62.4,30.16,East,99,1.0,1.0,53,0.00,,,0.00,Wunderground v.1.15,2013-08-20 17:44:00,
2013-08-20 13:50:00,81.7,62.4,30.16,NNE,18,1.0,2.0,52,0.00,,,0.00,Wunderground v.1.15,2013-08-20 17:50:00,
2013-08-20 13:56:00,81.8,63.0,30.16,ENE,72,1.0,2.0,53,0.00,,,0.00,Wunderground v.1.15,2013-08-20 17:56:00,
2013-08-20 14:02:00,81.8,64.1,30.16,West,269,1.0,5.0,55,0.00,,,0.00,Wunderground v.1.15,2013-08-20 18:02:00,
2013-08-20 14:08:00,81.6,61.7,30.16,SW,226,1.0,5.0,51,0.00,,,0.00,Wunderground v.1.15,2013-08-20 18:08:00,
2013-08-20 14:14:00,81.5,63.8,30.16,NW,317,1.0,3.0,55,0.00,,,0.00,Wunderground v.1.15,2013-08-20 18:14:00,
2013-08-20 14:20:00,81.6,63.3,30.16,WSW,243,1.0,1.0,54,0.00,,,0.00,Wunderground v.1.15,2013-08-20 18:20:00,
2013-08-20 14:26:00,81.6,62.8,30.16,West,272,1.0,2.0,53,0.00,,,0.00,Wunderground v.1.15,2013-08-20 18:26:00,
2013-08-20 14:32:00,81.9,65.7,30.16,West,269,1.0,1.0,58,0.00,,,0.00,Wunderground v.1.15,2013-08-20 18:32:00,
2013-08-20 14:38:00,82.0,62.1,30.15,SE,128,1.0,2.0,51,0.00,,,0.00,Wunderground v.1.15,2013-08-20 18:38:00,
2013-08-20 14:44:00,82.1,61.6,30.15,SW,227,1.0,1.0,50,0.00,,,0.00,Wunderground v.1.15,2013-08-20 18:44:00,
2013-08-20 14:50:00,82.0,66.3,30.15,SW,221,1.0,1.0,59,0.00,,,0.00,Wunderground v.1.15,2013-08-20 18:50:00,
2013-08-20 14:56:00,82.4,65.6,30.15,WSW,240,1.0,1.0,57,0.00,,,0.00,Wunderground v.1.15,2013-08-20 18:56:00,
2013-08-20 15:02:00,82.4,66.1,30.14,SW,236,1.0,1.0,58,0.00,,,0.00,Wunderground v.1.15,2013-08-20 19:02:00,
2013-08-20 15:08:00,82.4,65.1,30.14,ENE,67,0.0,4.0,56,0.00,,,0.00,Wunderground v.1.15,2013-08-20 19:08:00,
2013-08-20 15:14:00,82.5,63.6,30.14,West,279,0.0,2.0,53,0.00,,,0.00,Wunderground v.1.15,2013-08-20 19:14:00,
2013-08-20 15:20:00,82.5,63.1,30.14,NNW,339,1.0,1.0,52,0.00,,,0.00,Wunderground v.1.15,2013-08-20 19:20:00,
2013-08-20 15:26:00,82.2,63.4,30.14,NNE,17,1.0,3.0,53,0.00,,,0.00,Wunderground v.1.15,2013-08-20 19:26:00,
2013-08-20 15:32:00,82.3,63.5,30.14,NNE,30,1.0,1.0,53,0.00,,,0.00,Wunderground v.1.15,2013-08-20 19:32:00,
2013-08-20 15:38:00,82.2,64.9,30.14,NNE,30,0.0,1.0,56,0.00,,,0.00,Wunderground v.1.15,2013-08-20 19:38:00,
2013-08-20 15:44:00,83.0,66.2,30.14,NNE,30,0.0,0.0,57,0.00,,,0.00,Wunderground v.1.15,2013-08-20 19:44:00,
2013-08-20 15:50:00,83.1,65.8,30.14,South,189,0.0,2.0,56,0.00,,,0.00,Wunderground v.1.15,2013-08-20 19:50:00,
2013-08-20 15:56:00,83.0,64.6,30.14,West,259,1.0,2.0,54,0.00,,,0.00,Wunderground v.1.15,2013-08-20 19:56:00,
2013-08-20 16:02:00,82.9,67.1,30.14,WSW,246,1.0,4.0,59,0.00,,,0.00,Wunderground v.1.15,2013-08-20 20:02:00,
2013-08-20 16:08:00,83.0,65.7,30.14,SSE,156,0.0,4.0,56,0.00,,,0.00,Wunderground v.1.15,2013-08-20 20:08:00,
2013-08-20 16:14:00,82.9,66.1,30.14,SSE,157,0.0,1.0,57,0.00,,,0.00,Wunderground v.1.15,2013-08-20 20:14:00,
2013-08-20 16:20:00,82.5,64.2,30.14,SE,128,1.0,1.0,54,0.00,,,0.00,Wunderground v.1.15,2013-08-20 20:20:00,
2013-08-20 16:26:00,82.3,64.5,30.14,SW,227,1.0,1.0,55,0.00,,,0.00,Wunderground v.1.15,2013-08-20 20:26:00,
2013-08-20 16:32:00,82.6,66.3,30.14,SW,224,1.0,1.0,58,0.00,,,0.00,Wunderground v.1.15,2013-08-20 20:32:00,
2013-08-20 16:38:00,82.3,66.0,30.14,SE,131,0.0,1.0,58,0.00,,,0.00,Wunderground v.1.15,2013-08-20 20:38:00,
2013-08-20 16:44:00,82.8,65.5,30.14,SSW,208,0.0,1.0,56,0.00,,,0.00,Wunderground v.1.15,2013-08-20 20:44:00,
2013-08-20 16:50:00,82.9,64.5,30.14,South,188,0.0,0.0,54,0.00,,,0.00,Wunderground v.1.15,2013-08-20 20:50:00,
2013-08-20 16:56:00,82.9,66.1,30.14,SW,225,0.0,2.0,57,0.00,,,0.00,Wunderground v.1.15,2013-08-20 20:56:00,
2013-08-20 17:02:00,82.5,66.7,30.14,SW,223,0.0,3.0,59,0.00,,,0.00,Wunderground v.1.15,2013-08-20 21:02:00,
2013-08-20 17:08:00,81.9,65.7,30.14,SE,140,0.0,3.0,58,0.00,,,0.00,Wunderground v.1.15,2013-08-20 21:08:00,
2013-08-20 17:14:00,81.7,65.0,30.13,SW,226,0.0,1.0,57,0.00,,,0.00,Wunderground v.1.15,2013-08-20 21:14:00,
2013-08-20 17:20:00,81.7,66.0,30.13,SSW,207,0.0,0.0,59,0.00,,,0.00,Wunderground v.1.15,2013-08-20 21:20:00,
2013-08-20 17:26:00,81.3,66.1,30.14,SW,214,0.0,1.0,60,0.00,,,0.00,Wunderground v.1.15,2013-08-20 21:26:00,
2013-08-20 17:32:00,80.9,65.7,30.14,South,188,0.0,1.0,60,0.00,,,0.00,Wunderground v.1.15,2013-08-20 21:32:00,
2013-08-20 17:38:00,80.4,66.6,30.13,WSW,245,0.0,1.0,63,0.00,,,0.00,Wunderground v.1.15,2013-08-20 21:38:00,
2013-08-20 17:44:00,80.0,66.3,30.14,SW,217,0.0,0.0,63,0.00,,,0.00,Wunderground v.1.15,2013-08-20 21:44:00,
2013-08-20 17:50:00,80.0,65.8,30.13,SW,222,0.0,0.0,62,0.00,,,0.00,Wunderground v.1.15,2013-08-20 21:50:00,
2013-08-20 17:56:00,79.5,65.3,30.13,SW,222,0.0,1.0,62,0.00,,,0.00,Wunderground v.1.15,2013-08-20 21:56:00,
2013-08-20 18:02:00,78.7,66.4,30.13,SW,222,0.0,2.0,66,0.00,,,0.00,Wunderground v.1.15,2013-08-20 22:02:00,
2013-08-20 18:08:00,78.0,65.7,30.13,SSW,195,0.0,2.0,66,0.00,,,0.00,Wunderground v.1.15,2013-08-20 22:08:00,
2013-08-20 18:14:00,77.5,65.2,30.13,SSW,195,0.0,1.0,66,0.00,,,0.00,Wunderground v.1.15,2013-08-20 22:14:00,
2013-08-20 18:20:00,77.0,65.2,30.13,SSW,195,0.0,1.0,67,0.00,,,0.00,Wunderground v.1.15,2013-08-20 22:20:00,
2013-08-20 18:26:00,76.6,64.8,30.13,SSW,195,0.0,1.0,67,0.00,,,0.00,Wunderground v.1.15,2013-08-20 22:26:00,
2013-08-20 18:32:00,76.3,66.2,30.13,SE,136,1.0,1.0,71,0.00,,,0.00,Wunderground v.1.15,2013-08-20 22:32:00,
2013-08-20 18:38:00,76.0,67.1,30.13,SE,136,1.0,1.0,74,0.00,,,0.00,Wunderground v.1.15,2013-08-20 22:38:00,
2013-08-20 18:44:00,75.6,67.5,30.13,SE,134,1.0,1.0,76,0.00,,,0.00,Wunderground v.1.15,2013-08-20 22:44:00,
2013-08-20 18:50:00,75.0,66.9,30.13,ESE,115,1.0,1.0,76,0.00,,,0.00,Wunderground v.1.15,2013-08-20 22:50:00,
2013-08-20 18:56:00,74.6,66.5,30.13,ESE,115,1.0,1.0,76,0.00,,,0.00,Wunderground v.1.15,2013-08-20 22:56:00,
2013-08-20 19:02:00,74.2,66.5,30.14,ESE,115,1.0,2.0,77,0.00,,,0.00,Wunderground v.1.15,2013-08-20 23:02:00,
2013-08-20 19:08:00,73.8,66.5,30.14,ESE,115,1.0,2.0,78,0.00,,,0.00,Wunderground v.1.15,2013-08-20 23:08:00,
2013-08-20 19:14:00,73.4,66.1,30.14,ESE,115,1.0,1.0,78,0.00,,,0.00,Wunderground v.1.15,2013-08-20 23:14:00,
2013-08-20 19:20:00,73.1,65.8,30.14,ESE,115,1.0,1.0,78,0.00,,,0.00,Wunderground v.1.15,2013-08-20 23:20:00,
2013-08-20 19:26:00,72.7,66.2,30.14,ESE,115,1.0,1.0,80,0.00,,,0.00,Wunderground v.1.15,2013-08-20 23:26:00,
2013-08-20 19:32:00,72.4,65.9,30.14,ESE,115,1.0,2.0,80,0.00,,,0.00,Wunderground v.1.15,2013-08-20 23:32:00,
2013-08-20 19:38:00,72.1,65.9,30.14,ESE,115,1.0,2.0,81,0.00,,,0.00,Wunderground v.1.15,2013-08-20 23:38:00,
2013-08-20 19:44:00,71.8,65.7,30.14,ESE,106,1.0,2.0,81,0.00,,,0.00,Wunderground v.1.15,2013-08-20 23:44:00,
2013-08-20 19:50:00,71.4,65.3,30.14,ESE,107,1.0,1.0,81,0.00,,,0.00,Wunderground v.1.15,2013-08-20 23:50:00,
2013-08-20 19:56:00,71.1,65.3,30.14,ESE,106,1.0,2.0,82,0.00,,,0.00,Wunderground v.1.15,2013-08-20 23:56:00,
2013-08-20 20:02:00,70.8,65.0,30.14,ESE,111,2.0,2.0,82,0.00,,,0.00,Wunderground v.1.15,2013-08-21 00:02:00,
2013-08-20 20:08:00,70.5,65.1,30.15,East,101,2.0,2.0,83,0.00,,,0.00,Wunderground v.1.15,2013-08-21 00:08:00,
2013-08-20 20:14:00,70.3,64.9,30.15,East,101,2.0,2.0,83,0.00,,,0.00,Wunderground v.1.15,2013-08-21 00:14:00,
2013-08-20 20:20:00,70.1,64.7,30.15,ESE,112,2.0,2.0,83,0.00,,,0.00,Wunderground v.1.15,2013-08-21 00:20:00,
2013-08-20 20:26:00,69.8,64.7,30.15,ESE,107,2.0,2.0,84,0.00,,,0.00,Wunderground v.1.15,2013-08-21 00:26:00,
2013-08-20 20:32:00,69.6,64.9,30.15,ESE,110,1.0,1.0,85,0.00,,,0.00,Wunderground v.1.15,2013-08-21 00:32:00,
2013-08-20 20:38:00,69.4,64.7,30.15,ESE,106,1.0,2.0,85,0.00,,,0.00,Wunderground v.1.15,2013-08-21 00:38:00,
2013-08-20 20:44:00,69.3,64.6,30.16,ESE,102,2.0,2.0,85,0.00,,,0.00,Wunderground v.1.15,2013-08-21 00:44:00,
2013-08-20 20:50:00,69.4,64.4,30.16,ESE,109,2.0,2.0,84,0.00,,,0.00,Wunderground v.1.15,2013-08-21 00:50:00,
2013-08-20 20:56:00,69.3,64.6,30.16,ESE,110,2.0,2.0,85,0.00,,,0.00,Wunderground v.1.15,2013-08-21 00:56:00,
2013-08-20 21:02:00,69.1,64.4,30.16,ESE,115,2.0,2.0,85,0.00,,,0.00,Wunderground v.1.15,2013-08-21 01:02:00,
2013-08-20 21:08:00,69.1,64.1,30.16,ESE,114,2.0,2.0,84,0.00,,,0.00,Wunderground v.1.15,2013-08-21 01:08:00,
2013-08-20 21:14:00,69.3,64.3,30.16,ESE,117,2.0,2.0,84,0.00,,,0.00,Wunderground v.1.15,2013-08-21 01:14:00,
2013-08-20 21:20:00,69.4,64.4,30.17,ESE,116,2.0,2.0,84,0.00,,,0.00,Wunderground v.1.15,2013-08-21 01:20:00,
2013-08-20 21:26:00,69.2,64.2,30.17,ESE,112,2.0,2.0,84,0.00,,,0.00,Wunderground v.1.15,2013-08-21 01:26:00,
2013-08-20 21:32:00,69.0,63.6,30.17,ESE,110,2.0,2.0,83,0.00,,,0.00,Wunderground v.1.15,2013-08-21 01:32:00,
2013-08-20 21:38:00,69.1,64.1,30.17,ESE,120,2.0,2.0,84,0.00,,,0.00,Wunderground v.1.15,2013-08-21 01:38:00,
2013-08-20 21:44:00,69.2,64.2,30.17,ESE,108,2.0,2.0,84,0.00,,,0.00,Wunderground v.1.15,2013-08-21 01:44:00,
2013-08-20 21:50:00,68.9,63.9,30.17,ESE,109,2.0,2.0,84,0.00,,,0.00,Wunderground v.1.15,2013-08-21 01:50:00,
2013-08-20 21:56:00,68.9,63.9,30.17,ESE,115,2.0,2.0,84,0.00,,,0.00,Wunderground v.1.15,2013-08-21 01:56:00,
2013-08-20 22:02:00,69.0,63.6,30.17,ESE,115,2.0,2.0,83,0.00,,,0.00,Wunderground v.1.15,2013-08-21 02:02:00,
2013-08-20 22:08:00,68.7,63.3,30.17,ESE,107,2.0,2.0,83,0.00,,,0.00,Wunderground v.1.15,2013-08-21 02:08:00,
2013-08-20 22:14:00,68.5,63.5,30.17,ESE,108,2.0,2.0,84,0.00,,,0.00,Wunderground v.1.15,2013-08-21 02:14:00,
2013-08-20 22:20:00,68.4,63.4,30.17,ESE,107,1.0,1.0,84,0.00,,,0.00,Wunderground v.1.15,2013-08-21 02:20:00,
2013-08-20 22:26:00,68.4,63.4,30.17,ESE,103,1.0,1.0,84,0.00,,,0.00,Wunderground v.1.15,2013-08-21 02:26:00,
2013-08-20 22:32:00,68.1,63.4,30.17,ESE,102,1.0,2.0,85,0.00,,,0.00,Wunderground v.1.15,2013-08-21 02:32:00,
2013-08-20 22:38:00,67.9,63.2,30.18,ESE,102,1.0,2.0,85,0.00,,,0.00,Wunderground v.1.15,2013-08-21 02:38:00,
2013-08-20 22:44:00,67.5,63.2,30.18,East,96,1.0,1.0,86,0.00,,,0.00,Wunderground v.1.15,2013-08-21 02:44:00,
2013-08-20 22:50:00,67.4,62.7,30.17,East,96,1.0,1.0,85,0.00,,,0.00,Wunderground v.1.15,2013-08-21 02:50:00,
2013-08-20 22:56:00,67.4,62.7,30.18,East,96,1.0,1.0,85,0.00,,,0.00,Wunderground v.1.15,2013-08-21 02:56:00,
2013-08-20 23:02:00,67.1,62.8,30.18,East,95,1.0,3.0,86,0.00,,,0.00,Wunderground v.1.15,2013-08-21 03:02:00,
2013-08-20 23:08:00,67.0,62.3,30.18,East,95,1.0,3.0,85,0.00,,,0.00,Wunderground v.1.15,2013-08-21 03:08:00,
2013-08-20 23:14:00,67.0,62.3,30.18,East,95,1.0,1.0,85,0.00,,,0.00,Wunderground v.1.15,2013-08-21 03:14:00,
2013-08-20 23:20:00,66.8,62.5,30.18,East,95,1.0,1.0,86,0.00,,,0.00,Wunderground v.1.15,2013-08-21 03:20:00,
2013-08-20 23:26:00,66.5,61.8,30.18,East,95,1.0,1.0,85,0.00,,,0.00,Wunderground v.1.15,2013-08-21 03:26:00,
2013-08-20 23:32:00,66.4,62.1,30.18,East,95,1.0,1.0,86,0.00,,,0.00,Wunderground v.1.15,2013-08-21 03:32:00,
2013-08-20 23:38:00,66.2,62.2,30.18,East,95,1.0,1.0,87,0.00,,,0.00,Wunderground v.1.15,2013-08-21 03:38:00,
2013-08-20 23:44:00,66.1,62.1,30.18,East,95,1.0,1.0,87,0.00,,,0.00,Wunderground v.1.15,2013-08-21 03:44:00,
2013-08-20 23:50:00,65.9,61.9,30.18,East,95,1.0,1.0,87,0.00,,,0.00,Wunderground v.1.15,2013-08-21 03:50:00,
2013-08-20 23:56:00,65.9,61.9,30.18,East,95,1.0,1.0,87,0.00,,,0.00,Wunderground v.1.15,2013-08-21 03:56:00,